KMDH/MDH METAR and TAF weather

Enter ICAO airport designator
Station Type Date Time Source
KMDH METAR 2019/06/17 13:52 UTC NOAA

KMDH 171352Z 19005KT 10SM CLR 23/22 A2993 RMK AO2 SLP131 T02330217


Station Type Date Time Source
KMDH Decoded METAR 2019/06/17 13:52 UTC NOAA

SOUTHERN ILLINOIS AIRPORT, IL, United States (KMDH) 37-47N 089-15W 130M
Jun 17, 2019 - 09:52 AM EDT / 2019.06.17 1352 UTC
Wind: from the S (190 degrees) at 6 MPH (5 KT):0
Visibility: 10 mile(s):0
Sky conditions: clear
Temperature: 73.9 F (23.3 C)
Dew Point: 71.1 F (21.7 C)
Relative Humidity: 90%
Pressure (altimeter): 29.93 in. Hg (1013 hPa)
ob: KMDH 171352Z 19005KT 10SM CLR 23/22 A2993 RMK AO2 SLP131 T02330217
cycle: 14

Station Type Date Time Source
KMDH TAF UTC NOAA

Error!

Example: see airport list